Terminal Aerodrome Forecast
Issued by NWS Dodge City, KS

Home | Current Version | Previous Version | Graphics & Text | Print | Product List | Glossary Off
Versions: 1 2 3 4 5 6 7 8 9 10 11 12 13 14 15 16 17 18 19 20 21 22 23 24 25 26 27 28 29 30 31 32 33 34 35 36 37 38 39 40 41 42 43 44 45 46 47 48 49 50

796
FTUS43 KDDC 251720
TAFDDC
TAF
KDDC 251720Z 2518/2618 34016G22KT P6SM OVC025
     FM252100 02008KT P6SM SKC
     FM260300 09009KT P6SM BKN250
     FM260600 13009KT P6SM OVC200
     FM261200 12015G25KT 5SM BR OVC010
     FM261700 10015G25KT P6SM OVC030=

USA.gov is the U.S. government's official web portal to all federal, state and local government web resources and services.